createdAt,value
2019-03-29T00:04:06.899Z,24.00
2019-03-29T00:10:19.222Z,24.93
2019-03-29T00:13:23.166Z,25.97
2019-03-29T00:16:19.490Z,26.30
2019-03-29T00:18:42.911Z,26.90
2019-03-29T00:21:13.353Z,27.10
2019-03-29T00:23:49.952Z,27.37
2019-03-29T00:26:21.650Z,28.73
2019-03-29T00:29:13.111Z,26.60
2019-03-29T00:31:46.426Z,28.30
2019-03-29T00:34:33.676Z,32.13
2019-03-29T00:36:59.164Z,29.67
2019-03-29T00:39:31.213Z,30.77
2019-03-29T00:42:14.871Z,29.83
2019-03-29T00:44:56.576Z,29.17
2019-03-29T00:47:31.150Z,31.27
2019-03-29T00:50:00.360Z,30.93
2019-03-29T00:52:36.937Z,30.73
2019-03-29T00:55:12.858Z,31.70
2019-03-29T00:57:41.556Z,32.33
2019-03-29T01:00:11.450Z,32.50
2019-03-29T01:02:40.139Z,32.43
2019-03-29T01:05:08.909Z,31.80
2019-03-29T01:07:37.619Z,32.67
2019-03-29T01:10:11.101Z,32.73
2019-03-29T01:12:39.666Z,33.27
2019-03-29T01:15:09.478Z,31.37
2019-03-29T01:17:38.340Z,33.30
2019-03-29T01:20:07.753Z,33.00
2019-03-29T01:22:36.436Z,34.03
2019-03-29T01:25:08.021Z,34.17
2019-03-29T01:27:36.865Z,34.73
2019-03-29T01:30:07.209Z,34.57
2019-03-29T01:32:35.872Z,34.87
2019-03-29T01:35:06.450Z,35.40
2019-03-29T01:37:35.002Z,34.80
2019-03-29T01:40:05.070Z,33.60
2019-03-29T01:42:33.648Z,34.20
2019-03-29T01:45:02.234Z,36.17
2019-03-29T01:47:30.822Z,33.33
2019-03-29T01:49:59.434Z,35.20
2019-03-29T01:52:30.236Z,34.70
2019-03-29T01:54:58.464Z,35.30
2019-03-29T01:57:27.124Z,35.87
2019-03-29T01:59:55.691Z,36.43
2019-03-29T02:02:24.357Z,35.33
2019-03-29T02:04:53.010Z,37.60
2019-03-29T02:07:21.617Z,38.60
2019-03-29T02:09:50.258Z,38.77
2019-03-29T02:12:18.828Z,38.20
2019-03-29T02:14:47.633Z,37.60
2019-03-29T02:17:16.290Z,37.07
2019-03-29T02:19:44.960Z,38.97
2019-03-29T02:22:13.549Z,38.93
2019-03-29T02:24:42.348Z,39.03
2019-03-29T02:27:10.859Z,40.47
2019-03-29T02:29:39.486Z,39.83
2019-03-29T02:32:08.155Z,40.93
2019-03-29T02:34:36.751Z,40.03
2019-03-29T02:37:05.298Z,43.43
2019-03-29T02:39:33.946Z,41.90
2019-03-29T02:42:02.645Z,41.47
2019-03-29T02:44:31.281Z,40.63
2019-03-29T02:46:59.832Z,41.43
2019-03-29T02:49:28.484Z,41.33
2019-03-29T02:51:57.081Z,41.17
2019-03-29T02:54:25.738Z,42.03
2019-03-29T02:56:54.403Z,41.90
2019-03-29T02:59:23.100Z,42.03
2019-03-29T03:01:51.795Z,41.40
2019-03-29T03:04:20.270Z,40.83
2019-03-29T03:06:48.858Z,42.37
2019-03-29T03:09:17.546Z,41.00
2019-03-29T03:11:46.157Z,43.10
2019-03-29T03:14:14.692Z,40.80
2019-03-29T03:16:43.486Z,43.07
2019-03-29T03:19:12.018Z,41.83
2019-03-29T03:21:40.707Z,42.77
2019-03-29T03:24:09.282Z,42.00
2019-03-29T03:26:37.926Z,42.70
2019-03-29T03:29:06.402Z,41.70
2019-03-29T03:31:35.078Z,41.90
2019-03-29T03:34:03.949Z,40.57
2019-03-29T03:36:32.576Z,41.10
2019-03-29T03:39:01.289Z,39.03
2019-03-29T03:41:29.936Z,37.53
2019-03-29T03:43:58.557Z,38.90
2019-03-29T03:46:27.155Z,36.87
2019-03-29T03:49:11.357Z,38.67
2019-03-29T03:51:48.126Z,37.80
2019-03-29T03:54:23.412Z,36.73
2019-03-29T03:56:52.659Z,37.50
2019-03-29T03:59:23.257Z,35.60
2019-03-29T04:01:51.922Z,35.87
2019-03-29T04:04:30.398Z,34.10
2019-03-29T04:07:04.684Z,34.17
2019-03-29T04:09:48.433Z,33.10
2019-03-29T04:12:14.972Z,33.33
2019-03-29T04:14:39.236Z,33.37
2019-03-29T04:17:07.840Z,35.10
2019-03-29T04:20:07.150Z,34.10
2019-03-29T04:22:40.285Z,32.87
2019-03-29T04:25:11.995Z,32.70
2019-03-29T04:27:45.563Z,34.87
2019-03-29T04:30:18.863Z,34.93
2019-03-29T04:32:52.654Z,33.77
2019-03-29T04:35:34.556Z,34.33
2019-03-29T04:41:42.929Z,32.40
2019-03-29T04:44:11.513Z,33.87
2019-03-29T04:46:49.197Z,35.27
2019-03-29T04:49:30.328Z,32.97
2019-03-29T04:58:01.364Z,33.63
2019-03-29T05:00:30.201Z,34.60
2019-03-29T05:03:25.126Z,34.97
2019-03-29T05:06:06.768Z,33.23
2019-03-29T05:08:35.328Z,33.30
2019-03-29T05:11:04.083Z,46.87
2019-03-29T05:13:32.738Z,35.07
2019-03-29T05:16:01.578Z,31.70
2019-03-29T05:18:30.314Z,30.17
2019-03-29T05:20:58.972Z,28.80
2019-03-29T05:23:27.670Z,25.97
2019-03-29T05:25:56.232Z,24.17
2019-03-29T05:28:24.969Z,24.90
2019-03-29T05:30:55.066Z,22.10
2019-03-29T05:33:25.219Z,24.53
2019-03-29T05:35:54.094Z,24.13
2019-03-29T05:38:22.958Z,24.37
2019-03-29T05:40:51.849Z,23.37
2019-03-29T05:43:20.870Z,23.03
2019-03-29T05:45:49.799Z,24.20
2019-03-29T05:48:18.673Z,22.47
2019-03-29T05:50:47.634Z,23.57
2019-03-29T05:53:16.610Z,21.23
2019-03-29T05:55:48.217Z,22.60
2019-03-29T05:58:15.770Z,22.17
2019-03-29T06:00:44.528Z,20.87
2019-03-29T06:03:13.234Z,20.57
2019-03-29T06:05:41.878Z,21.93
2019-03-29T06:08:11.247Z,22.80
2019-03-29T06:10:49.220Z,24.27
2019-03-29T06:13:14.371Z,22.07
2019-03-29T06:15:43.114Z,22.23
2019-03-29T06:18:13.362Z,23.20
2019-03-29T06:20:41.998Z,23.10
2019-03-29T06:23:10.648Z,23.13
2019-03-29T06:25:39.280Z,23.83
2019-03-29T06:28:07.991Z,25.27
2019-03-29T06:30:36.796Z,26.03
2019-03-29T06:33:05.447Z,27.80
2019-03-29T06:35:36.137Z,28.87
2019-03-29T06:38:06.201Z,29.27
2019-03-29T06:40:34.736Z,28.67
2019-03-29T06:43:03.469Z,29.77
2019-03-29T06:45:32.090Z,30.13
2019-03-29T06:48:00.667Z,28.33
2019-03-29T06:50:29.372Z,27.67
2019-03-29T06:52:58.024Z,27.63
2019-03-29T06:55:26.777Z,27.73
2019-03-29T06:57:55.359Z,29.97
2019-03-29T07:00:23.895Z,31.07
2019-03-29T07:02:52.457Z,33.63
2019-03-29T07:05:21.042Z,32.10
2019-03-29T07:07:49.741Z,30.47
2019-03-29T07:10:18.211Z,30.07
2019-03-29T07:12:46.897Z,29.97
2019-03-29T07:15:15.519Z,29.73
2019-03-29T07:17:44.096Z,31.57
2019-03-29T07:20:12.692Z,31.67
2019-03-29T07:22:41.244Z,34.20
2019-03-29T07:25:09.931Z,33.43
2019-03-29T07:27:44.751Z,31.30
2019-03-29T07:30:09.511Z,33.00
2019-03-29T07:32:38.104Z,32.80
2019-03-29T07:35:07.864Z,33.17
2019-03-29T07:37:36.377Z,36.30
2019-03-29T07:40:05.467Z,36.13
2019-03-29T07:42:34.152Z,34.00
2019-03-29T07:45:02.817Z,42.90
2019-03-29T07:47:31.395Z,37.80
2019-03-29T07:50:00.347Z,38.13
2019-03-29T07:52:29.047Z,38.23
2019-03-29T07:54:57.799Z,38.73
2019-03-29T07:57:26.574Z,39.47
2019-03-29T07:59:55.127Z,39.87
2019-03-29T08:02:23.817Z,38.83
2019-03-29T08:04:52.522Z,38.67
2019-03-29T08:07:27.049Z,39.37
2019-03-29T08:09:51.383Z,39.37
2019-03-29T08:12:20.058Z,39.17
2019-03-29T08:14:48.602Z,38.03
2019-03-29T08:17:17.143Z,38.73
2019-03-29T08:19:45.799Z,38.63
2019-03-29T08:22:14.422Z,38.73
2019-03-29T08:24:43.058Z,38.63
2019-03-29T08:27:12.709Z,37.83
2019-03-29T08:29:41.405Z,37.60
2019-03-29T08:32:10.038Z,38.50
2019-03-29T08:34:38.662Z,35.80
2019-03-29T08:37:07.287Z,36.23
2019-03-29T08:39:35.958Z,36.53
2019-03-29T08:42:04.537Z,37.50
2019-03-29T08:44:33.134Z,36.13
2019-03-29T08:47:01.842Z,35.60
2019-03-29T08:49:30.521Z,36.90
2019-03-29T08:51:59.265Z,38.33
2019-03-29T08:54:27.896Z,37.37
2019-03-29T08:56:56.692Z,35.67
2019-03-29T08:59:25.324Z,37.17
2019-03-29T09:01:54.025Z,35.67
2019-03-29T09:04:23.347Z,37.47
2019-03-29T09:06:53.852Z,35.07
2019-03-29T09:09:22.389Z,35.50
2019-03-29T09:11:50.934Z,34.73
2019-03-29T09:14:19.575Z,34.20
2019-03-29T09:16:57.159Z,34.77
2019-03-29T09:19:25.850Z,32.30
2019-03-29T09:21:54.430Z,33.97
2019-03-29T09:24:23.074Z,31.57
2019-03-29T09:26:51.670Z,30.97
2019-03-29T09:29:20.473Z,30.90
2019-03-29T09:31:49.102Z,29.37
2019-03-29T09:34:17.728Z,27.90
2019-03-29T09:36:46.356Z,28.97
2019-03-29T09:39:15.082Z,28.43
2019-03-29T09:41:43.617Z,28.23
2019-03-29T09:44:12.263Z,27.23
2019-03-29T09:46:40.927Z,26.30
2019-03-29T09:49:09.677Z,25.93
2019-03-29T09:51:38.358Z,26.50
2019-03-29T09:54:07.023Z,25.27
2019-03-29T09:56:39.149Z,26.00
2019-03-29T09:59:06.015Z,26.50
2019-03-29T10:01:34.665Z,23.20
2019-03-29T10:04:03.323Z,23.50
2019-03-29T10:06:31.998Z,22.87
2019-03-29T10:09:00.568Z,25.00
2019-03-29T10:11:29.271Z,25.17
2019-03-29T10:13:57.897Z,23.00
2019-03-29T10:16:26.581Z,23.17
2019-03-29T10:18:55.313Z,23.20
2019-03-29T10:21:24.131Z,21.20
2019-03-29T10:23:52.708Z,22.40
2019-03-29T10:26:21.352Z,23.83
2019-03-29T10:28:49.951Z,22.70
2019-03-29T10:31:31.486Z,24.47
2019-03-29T10:33:49.428Z,25.90
2019-03-29T10:36:18.198Z,24.63
2019-03-29T10:38:47.011Z,23.43
2019-03-29T10:41:15.851Z,23.10
2019-03-29T10:43:44.508Z,22.13
2019-03-29T10:46:13.235Z,21.83
2019-03-29T10:48:41.901Z,25.10
2019-03-29T10:51:10.606Z,24.00
2019-03-29T10:53:39.241Z,21.67
2019-03-29T10:56:08.052Z,19.97
2019-03-29T10:58:36.738Z,22.60
2019-03-29T11:01:05.602Z,16.90
2019-03-29T11:03:34.261Z,16.00
2019-03-29T11:06:04.856Z,14.05
2019-03-29T11:08:33.441Z,16.25
2019-03-29T11:11:03.017Z,15.38
2019-03-29T11:13:33.306Z,17.83
2019-03-29T11:16:01.997Z,21.60
2019-03-29T11:18:30.668Z,22.80
2019-03-29T11:20:59.309Z,24.20
2019-03-29T11:23:27.921Z,22.73
2019-03-29T11:25:56.622Z,22.77
2019-03-29T11:28:25.270Z,24.45
2019-03-29T11:30:53.865Z,22.65
2019-03-29T11:33:22.585Z,22.07
2019-03-29T11:35:51.297Z,21.17
2019-03-29T11:38:19.909Z,20.67
2019-03-29T11:40:48.588Z,20.93
2019-03-29T11:43:26.554Z,23.52
2019-03-29T11:45:47.642Z,22.52
2019-03-29T11:48:16.297Z,21.12
2019-03-29T11:50:44.864Z,21.68
2019-03-29T11:53:13.591Z,22.82
2019-03-29T11:55:42.399Z,19.73
2019-03-29T11:58:11.109Z,20.63
2019-03-29T12:00:41.244Z,19.37
2019-03-29T12:03:10.035Z,16.95
2019-03-29T12:05:38.914Z,15.70
2019-03-29T12:08:07.642Z,16.23
2019-03-29T12:10:36.447Z,17.85
2019-03-29T12:13:07.071Z,17.52
2019-03-29T12:15:35.795Z,17.30
2019-03-29T12:18:04.543Z,19.07
2019-03-29T12:20:33.192Z,17.87
2019-03-29T12:23:01.847Z,18.62
2019-03-29T12:25:30.575Z,17.20
2019-03-29T12:27:59.225Z,18.20
2019-03-29T12:30:31.812Z,17.82
2019-03-29T12:32:58.119Z,14.10
2019-03-29T12:35:26.810Z,15.35
2019-03-29T12:37:55.377Z,14.93
2019-03-29T12:40:24.209Z,14.28
2019-03-29T12:42:52.773Z,13.30
2019-03-29T12:45:21.517Z,14.95
2019-03-29T12:47:50.099Z,13.80
2019-03-29T12:50:18.893Z,14.80
2019-03-29T12:52:47.571Z,13.88
2019-03-29T12:55:16.317Z,13.00
2019-03-29T12:57:45.079Z,13.55
2019-03-29T13:00:14.175Z,13.03
2019-03-29T13:02:42.979Z,12.30
2019-03-29T13:05:11.774Z,12.13
2019-03-29T13:07:40.363Z,12.47
2019-03-29T13:10:09.906Z,12.10
2019-03-29T13:12:38.539Z,11.60
2019-03-29T13:15:08.591Z,12.58
2019-03-29T13:17:37.625Z,11.90
2019-03-29T13:20:06.760Z,11.10
2019-03-29T13:22:35.432Z,11.93
2019-03-29T13:25:07.516Z,11.80
2019-03-29T13:27:36.478Z,12.40
2019-03-29T13:30:07.275Z,12.30
2019-03-29T13:32:36.121Z,12.18
2019-03-29T13:35:06.853Z,13.22
2019-03-29T13:37:35.470Z,12.82
2019-03-29T13:40:10.304Z,12.80
2019-03-29T13:42:40.738Z,13.13
2019-03-29T13:45:10.695Z,12.20
2019-03-29T13:47:39.526Z,12.55
2019-03-29T13:50:09.932Z,12.10
2019-03-29T13:52:38.659Z,12.58
2019-03-29T13:55:07.544Z,13.08
2019-03-29T13:57:36.137Z,13.45
2019-03-29T14:00:08.200Z,13.48
2019-03-29T14:02:36.788Z,12.75
2019-03-29T14:05:06.781Z,13.10
2019-03-29T14:07:35.409Z,14.05
2019-03-29T14:10:06.542Z,14.30
2019-03-29T14:12:35.245Z,13.13
2019-03-29T14:15:04.689Z,13.13
2019-03-29T14:17:33.347Z,13.13
2019-03-29T14:20:02.024Z,14.15
2019-03-29T14:22:30.605Z,12.93
2019-03-29T14:24:59.281Z,14.15
2019-03-29T14:27:27.838Z,12.70
2019-03-29T14:30:04.305Z,13.38
2019-03-29T14:32:26.625Z,14.00
2019-03-29T14:34:55.272Z,13.10
2019-03-29T14:37:23.913Z,13.20
2019-03-29T14:39:52.578Z,14.30
2019-03-29T14:42:21.117Z,13.62
2019-03-29T14:44:52.725Z,14.25
2019-03-29T14:47:20.169Z,14.00
2019-03-29T14:49:48.755Z,14.65
2019-03-29T14:52:17.453Z,14.78
2019-03-29T14:54:46.282Z,13.83
2019-03-29T14:57:14.933Z,14.40
2019-03-29T14:59:43.644Z,14.87
2019-03-29T15:02:12.310Z,14.03
2019-03-29T15:04:41.035Z,15.53
2019-03-29T15:07:09.746Z,15.10
2019-03-29T15:09:38.549Z,15.18
2019-03-29T15:12:07.361Z,15.48
2019-03-29T15:14:35.979Z,14.25
2019-03-29T15:17:04.742Z,15.60
2019-03-29T15:19:33.395Z,15.73
2019-03-29T15:22:02.104Z,14.93
2019-03-29T15:24:30.708Z,14.98
2019-03-29T15:26:59.410Z,15.00
2019-03-29T15:29:27.968Z,15.20
2019-03-29T15:31:56.638Z,16.17
2019-03-29T15:34:25.330Z,15.90
2019-03-29T15:36:54.034Z,17.05
2019-03-29T15:39:22.646Z,16.32
2019-03-29T15:41:51.275Z,16.82
2019-03-29T15:44:19.917Z,16.87
2019-03-29T15:46:48.589Z,16.23
2019-03-29T15:49:17.151Z,17.30
2019-03-29T15:51:45.769Z,16.87
2019-03-29T15:54:14.296Z,16.65
2019-03-29T15:56:43.046Z,22.65
2019-03-29T15:59:11.617Z,16.35
2019-03-29T16:01:40.286Z,16.42
2019-03-29T16:04:08.915Z,16.48
2019-03-29T16:06:37.570Z,17.55
2019-03-29T16:09:06.833Z,18.00
2019-03-29T16:11:35.469Z,17.20
2019-03-29T16:14:04.277Z,17.20
2019-03-29T16:16:32.896Z,18.73
2019-03-29T16:19:01.384Z,17.73
2019-03-29T16:21:31.531Z,18.10
2019-03-29T16:24:01.058Z,17.87
2019-03-29T16:26:31.557Z,16.33
2019-03-29T16:29:09.603Z,17.50
2019-03-29T16:31:38.998Z,16.82
2019-03-29T16:34:07.788Z,16.37
2019-03-29T16:36:58.473Z,15.60
2019-03-29T16:39:27.428Z,14.20
2019-03-29T16:42:03.175Z,14.03
2019-03-29T16:44:40.160Z,13.63
2019-03-29T16:47:14.972Z,15.00
2019-03-29T16:50:02.571Z,14.87
2019-03-29T16:52:35.908Z,16.00
2019-03-29T16:55:15.756Z,14.07
2019-03-29T16:57:44.628Z,14.33
2019-03-29T17:00:13.625Z,13.13
2019-03-29T17:02:43.957Z,12.75
2019-03-29T17:05:13.391Z,12.40
2019-03-29T17:07:44.016Z,12.70
2019-03-29T17:10:19.476Z,13.60
2019-03-29T17:12:48.498Z,14.07
2019-03-29T17:15:17.506Z,14.63
2019-03-29T17:17:46.251Z,14.83
2019-03-29T17:20:15.464Z,15.17
2019-03-29T17:22:44.209Z,14.80
2019-03-29T17:25:13.174Z,15.13
2019-03-29T17:27:42.262Z,14.80
2019-03-29T17:30:13.293Z,14.63
2019-03-29T17:32:43.723Z,14.37
2019-03-29T17:35:12.568Z,14.37
2019-03-29T17:37:41.891Z,15.50
2019-03-29T17:40:10.739Z,14.67
2019-03-29T17:42:39.943Z,12.83
2019-03-29T17:45:08.976Z,16.50
2019-03-29T17:47:37.777Z,14.50
2019-03-29T17:50:07.158Z,14.33
2019-03-29T17:52:36.163Z,15.17
2019-03-29T17:55:09.743Z,16.30
2019-03-29T17:57:38.556Z,22.30
2019-03-29T18:00:13.848Z,21.40
2019-03-29T18:02:48.873Z,38.87
2019-03-29T18:05:17.700Z,29.20
2019-03-29T18:07:46.270Z,22.93
2019-03-29T18:10:15.170Z,17.47
2019-03-29T18:12:56.724Z,16.30
2019-03-29T18:15:25.268Z,14.20
2019-03-29T18:17:53.997Z,14.47
2019-03-29T18:20:25.322Z,13.30
2019-03-29T18:22:55.924Z,13.90
2019-03-29T18:25:24.564Z,13.53
2019-03-29T18:27:53.352Z,14.93
2019-03-29T18:30:34.310Z,22.93
2019-03-29T18:33:03.094Z,15.20
2019-03-29T18:35:32.026Z,15.50
2019-03-29T18:38:00.805Z,14.30
2019-03-29T18:40:29.572Z,15.80
2019-03-29T18:43:02.726Z,18.93
2019-03-29T18:45:28.528Z,16.57
2019-03-29T18:47:57.184Z,15.77
2019-03-29T18:50:25.832Z,14.03
2019-03-29T18:52:54.599Z,15.07
2019-03-29T18:55:23.301Z,14.10
2019-03-29T18:57:51.850Z,13.87
2019-03-29T19:00:29.316Z,16.67
2019-03-29T19:02:58.092Z,15.57
2019-03-29T19:05:27.500Z,14.17
2019-03-29T19:07:56.168Z,15.23
2019-03-29T19:10:24.868Z,15.07
2019-03-29T19:12:53.581Z,13.90
2019-03-29T19:15:22.281Z,14.57
2019-03-29T19:17:51.084Z,15.37
2019-03-29T19:20:27.202Z,13.77
2019-03-29T19:22:49.961Z,13.73
2019-03-29T19:25:18.595Z,13.90
2019-03-29T19:27:47.146Z,14.33
2019-03-29T19:30:16.356Z,14.60
2019-03-29T19:32:45.069Z,21.43
2019-03-29T19:35:14.020Z,18.30
2019-03-29T19:37:42.798Z,24.87
2019-03-29T19:40:11.697Z,17.13
2019-03-29T19:42:40.446Z,14.50
2019-03-29T19:45:12.385Z,15.07
2019-03-29T19:47:41.150Z,14.57
2019-03-29T19:50:10.440Z,13.10
2019-03-29T19:52:39.318Z,13.83
2019-03-29T19:55:07.922Z,12.77
2019-03-29T19:57:36.656Z,14.30
2019-03-29T20:03:07.865Z,24.53
2019-03-29T20:05:38.109Z,17.73
2019-03-29T20:08:06.777Z,14.33
2019-03-29T20:10:35.533Z,13.60
2019-03-29T20:13:04.364Z,13.37
2019-03-29T20:15:33.107Z,16.50
2019-03-29T20:18:01.782Z,15.00
2019-03-29T20:20:39.661Z,13.63
2019-03-29T20:23:13.074Z,15.07
2019-03-29T20:25:42.094Z,15.53
2019-03-29T20:33:50.299Z,13.53
2019-03-29T20:34:24.458Z,14.03
2019-03-29T20:37:09.065Z,16.73
2019-03-29T20:42:39.398Z,17.33
2019-03-29T20:45:08.866Z,19.30
2019-03-29T20:47:42.251Z,21.20
2019-03-29T21:07:34.824Z,31.27
2019-03-29T21:13:34.490Z,36.13
2019-03-29T21:22:04.583Z,39.63
2019-03-29T21:24:45.451Z,43.17
2019-03-29T21:27:20.039Z,42.73
2019-03-29T21:32:50.123Z,41.50
2019-03-29T21:35:23.980Z,43.83
2019-03-29T21:37:55.070Z,46.57
2019-03-29T21:40:29.694Z,45.43
2019-03-29T21:43:05.219Z,44.77
2019-03-29T21:45:39.943Z,46.57
2019-03-29T21:48:27.379Z,46.80
2019-03-29T21:50:39.268Z,47.53
2019-03-29T21:53:14.396Z,50.10
2019-03-29T21:55:46.262Z,49.10
2019-03-29T21:58:15.290Z,50.90
2019-03-29T22:00:46.907Z,48.80
2019-03-29T22:03:15.586Z,49.90
2019-03-29T22:05:44.421Z,50.87
2019-03-29T22:08:13.417Z,48.47
2019-03-29T22:11:05.960Z,51.07
2019-03-29T22:13:44.702Z,49.93
2019-03-29T22:16:25.016Z,51.40
2019-03-29T22:19:51.977Z,49.83
2019-03-29T22:21:37.447Z,50.80
2019-03-29T22:24:11.776Z,51.97
2019-03-29T22:29:46.168Z,50.93
2019-03-29T22:32:21.785Z,50.83
2019-03-29T22:37:49.354Z,50.93
2019-03-29T22:40:18.651Z,52.10
2019-03-29T22:43:01.014Z,52.77
2019-03-29T22:45:38.093Z,52.17
2019-03-29T22:48:07.014Z,53.50
2019-03-29T22:50:47.245Z,52.63
2019-03-29T22:53:19.402Z,53.27
2019-03-29T22:55:48.290Z,52.80
2019-03-29T22:58:18.660Z,54.73
2019-03-29T23:01:08.097Z,52.97
